sensor_id;sensor_type;location;lat;lon;timestamp;P1;durP1;ratioP1;P2;durP2;ratioP2
4375;SDS011;2202;50.866;12.750;2023-03-23T00:02:19;2.37;;;1.80;;
4375;SDS011;2202;50.866;12.750;2023-03-23T00:04:49;2.00;;;1.50;;
4375;SDS011;2202;50.866;12.750;2023-03-23T00:07:17;1.87;;;1.77;;
4375;SDS011;2202;50.866;12.750;2023-03-23T00:09:46;2.03;;;1.70;;
4375;SDS011;2202;50.866;12.750;2023-03-23T00:12:17;2.10;;;1.40;;
4375;SDS011;2202;50.866;12.750;2023-03-23T00:14:45;4.60;;;1.77;;
4375;SDS011;2202;50.866;12.750;2023-03-23T00:17:12;3.30;;;2.00;;
4375;SDS011;2202;50.866;12.750;2023-03-23T00:19:39;1.90;;;1.63;;
4375;SDS011;2202;50.866;12.750;2023-03-23T00:22:11;2.33;;;1.50;;
4375;SDS011;2202;50.866;12.750;2023-03-23T00:24:40;2.43;;;1.80;;
4375;SDS011;2202;50.866;12.750;2023-03-23T00:27:08;2.40;;;2.00;;
4375;SDS011;2202;50.866;12.750;2023-03-23T00:29:37;2.80;;;1.47;;
4375;SDS011;2202;50.866;12.750;2023-03-23T00:32:06;2.30;;;1.93;;
4375;SDS011;2202;50.866;12.750;2023-03-23T00:34:37;2.27;;;1.67;;
4375;SDS011;2202;50.866;12.750;2023-03-23T00:37:06;1.60;;;1.50;;
4375;SDS011;2202;50.866;12.750;2023-03-23T00:39:34;2.77;;;1.90;;
4375;SDS011;2202;50.866;12.750;2023-03-23T00:42:04;2.57;;;1.87;;
4375;SDS011;2202;50.866;12.750;2023-03-23T00:44:32;3.43;;;1.60;;
4375;SDS011;2202;50.866;12.750;2023-03-23T00:47:00;2.20;;;1.80;;
4375;SDS011;2202;50.866;12.750;2023-03-23T00:51:56;1.90;;;1.50;;
4375;SDS011;2202;50.866;12.750;2023-03-23T00:54:24;1.80;;;1.57;;
4375;SDS011;2202;50.866;12.750;2023-03-23T00:56:51;1.50;;;1.17;;
4375;SDS011;2202;50.866;12.750;2023-03-23T00:59:20;2.40;;;2.00;;
4375;SDS011;2202;50.866;12.750;2023-03-23T01:01:48;1.70;;;1.60;;
4375;SDS011;2202;50.866;12.750;2023-03-23T01:04:15;3.20;;;1.40;;
4375;SDS011;2202;50.866;12.750;2023-03-23T01:06:43;2.63;;;1.60;;
4375;SDS011;2202;50.866;12.750;2023-03-23T01:09:11;2.13;;;1.63;;
4375;SDS011;2202;50.866;12.750;2023-03-23T01:11:41;1.80;;;1.30;;
4375;SDS011;2202;50.866;12.750;2023-03-23T01:14:09;1.93;;;1.73;;
4375;SDS011;2202;50.866;12.750;2023-03-23T01:16:37;1.80;;;1.10;;
4375;SDS011;2202;50.866;12.750;2023-03-23T01:19:05;2.40;;;1.93;;
4375;SDS011;2202;50.866;12.750;2023-03-23T01:21:32;2.30;;;1.80;;
4375;SDS011;2202;50.866;12.750;2023-03-23T01:23:58;4.40;;;2.07;;
4375;SDS011;2202;50.866;12.750;2023-03-23T01:26:26;2.20;;;1.50;;
4375;SDS011;2202;50.866;12.750;2023-03-23T01:28:53;2.17;;;1.30;;
4375;SDS011;2202;50.866;12.750;2023-03-23T01:31:22;2.43;;;1.67;;
4375;SDS011;2202;50.866;12.750;2023-03-23T01:33:52;1.50;;;1.10;;
4375;SDS011;2202;50.866;12.750;2023-03-23T01:36:22;3.00;;;1.40;;
4375;SDS011;2202;50.866;12.750;2023-03-23T01:38:51;2.60;;;1.47;;
4375;SDS011;2202;50.866;12.750;2023-03-23T01:41:19;2.73;;;1.57;;
4375;SDS011;2202;50.866;12.750;2023-03-23T01:43:54;2.47;;;1.67;;
4375;SDS011;2202;50.866;12.750;2023-03-23T01:46:22;1.70;;;1.30;;
4375;SDS011;2202;50.866;12.750;2023-03-23T01:48:52;3.00;;;1.47;;
4375;SDS011;2202;50.866;12.750;2023-03-23T01:51:23;5.40;;;1.70;;
4375;SDS011;2202;50.866;12.750;2023-03-23T01:53:53;2.00;;;1.37;;
4375;SDS011;2202;50.866;12.750;2023-03-23T01:56:23;2.37;;;1.80;;
4375;SDS011;2202;50.866;12.750;2023-03-23T01:58:55;1.70;;;1.53;;
4375;SDS011;2202;50.866;12.750;2023-03-23T02:01:22;2.03;;;1.73;;
4375;SDS011;2202;50.866;12.750;2023-03-23T02:03:51;8.70;;;2.60;;
4375;SDS011;2202;50.866;12.750;2023-03-23T02:06:22;1.90;;;1.50;;
4375;SDS011;2202;50.866;12.750;2023-03-23T02:08:49;2.40;;;1.90;;
4375;SDS011;2202;50.866;12.750;2023-03-23T02:11:19;2.00;;;1.43;;
4375;SDS011;2202;50.866;12.750;2023-03-23T02:13:47;2.23;;;1.63;;
4375;SDS011;2202;50.866;12.750;2023-03-23T02:16:17;1.50;;;1.40;;
4375;SDS011;2202;50.866;12.750;2023-03-23T02:18:52;1.70;;;1.60;;
4375;SDS011;2202;50.866;12.750;2023-03-23T02:21:43;2.00;;;1.73;;
4375;SDS011;2202;50.866;12.750;2023-03-23T02:24:29;2.37;;;2.00;;
4375;SDS011;2202;50.866;12.750;2023-03-23T02:27:13;5.10;;;2.00;;
4375;SDS011;2202;50.866;12.750;2023-03-23T02:29:52;2.40;;;2.20;;
4375;SDS011;2202;50.866;12.750;2023-03-23T02:35:28;2.53;;;2.03;;
4375;SDS011;2202;50.866;12.750;2023-03-23T02:38:01;2.57;;;1.57;;
4375;SDS011;2202;50.866;12.750;2023-03-23T02:40:32;2.37;;;1.63;;
4375;SDS011;2202;50.866;12.750;2023-03-23T02:43:06;3.40;;;2.20;;
4375;SDS011;2202;50.866;12.750;2023-03-23T02:45:35;2.50;;;1.57;;
4375;SDS011;2202;50.866;12.750;2023-03-23T02:48:03;4.00;;;2.07;;
4375;SDS011;2202;50.866;12.750;2023-03-23T02:50:34;2.90;;;2.10;;
4375;SDS011;2202;50.866;12.750;2023-03-23T02:53:02;2.77;;;1.80;;
4375;SDS011;2202;50.866;12.750;2023-03-23T02:55:33;1.90;;;1.80;;
4375;SDS011;2202;50.866;12.750;2023-03-23T02:58:05;2.30;;;2.10;;
4375;SDS011;2202;50.866;12.750;2023-03-23T03:00:32;2.13;;;1.93;;
4375;SDS011;2202;50.866;12.750;2023-03-23T03:02:59;2.33;;;1.73;;
4375;SDS011;2202;50.866;12.750;2023-03-23T03:05:30;2.60;;;2.13;;
4375;SDS011;2202;50.866;12.750;2023-03-23T03:08:07;2.30;;;1.57;;
4375;SDS011;2202;50.866;12.750;2023-03-23T03:10:42;2.37;;;2.10;;
4375;SDS011;2202;50.866;12.750;2023-03-23T03:13:14;2.77;;;2.20;;
4375;SDS011;2202;50.866;12.750;2023-03-23T03:15:53;2.67;;;2.23;;
4375;SDS011;2202;50.866;12.750;2023-03-23T03:18:26;3.20;;;2.33;;
4375;SDS011;2202;50.866;12.750;2023-03-23T03:20:58;4.07;;;2.10;;
4375;SDS011;2202;50.866;12.750;2023-03-23T03:23:28;2.47;;;2.27;;
4375;SDS011;2202;50.866;12.750;2023-03-23T03:25:58;2.27;;;2.07;;
4375;SDS011;2202;50.866;12.750;2023-03-23T03:28:29;2.00;;;1.80;;
4375;SDS011;2202;50.866;12.750;2023-03-23T03:30:58;3.63;;;1.83;;
4375;SDS011;2202;50.866;12.750;2023-03-23T03:33:30;1.97;;;1.70;;
4375;SDS011;2202;50.866;12.750;2023-03-23T03:36:00;2.47;;;2.00;;
4375;SDS011;2202;50.866;12.750;2023-03-23T03:38:29;2.40;;;2.10;;
4375;SDS011;2202;50.866;12.750;2023-03-23T03:40:56;4.83;;;1.73;;
4375;SDS011;2202;50.866;12.750;2023-03-23T03:43:23;2.07;;;1.87;;
4375;SDS011;2202;50.866;12.750;2023-03-23T03:45:49;2.20;;;2.00;;
4375;SDS011;2202;50.866;12.750;2023-03-23T03:48:16;3.23;;;1.93;;
4375;SDS011;2202;50.866;12.750;2023-03-23T03:50:43;3.40;;;2.20;;
4375;SDS011;2202;50.866;12.750;2023-03-23T03:53:11;2.20;;;2.00;;
4375;SDS011;2202;50.866;12.750;2023-03-23T03:55:38;1.90;;;1.80;;
4375;SDS011;2202;50.866;12.750;2023-03-23T03:58:13;2.23;;;2.03;;
4375;SDS011;2202;50.866;12.750;2023-03-23T04:00:40;2.67;;;2.47;;
4375;SDS011;2202;50.866;12.750;2023-03-23T04:03:07;3.83;;;2.20;;
4375;SDS011;2202;50.866;12.750;2023-03-23T04:05:34;2.53;;;1.90;;
4375;SDS011;2202;50.866;12.750;2023-03-23T04:08:01;3.20;;;3.00;;
4375;SDS011;2202;50.866;12.750;2023-03-23T04:10:30;1.73;;;1.63;;
4375;SDS011;2202;50.866;12.750;2023-03-23T04:12:58;2.50;;;1.97;;
4375;SDS011;2202;50.866;12.750;2023-03-23T04:15:25;2.57;;;2.33;;
4375;SDS011;2202;50.866;12.750;2023-03-23T04:17:52;3.30;;;2.20;;
4375;SDS011;2202;50.866;12.750;2023-03-23T04:20:21;2.23;;;2.03;;
4375;SDS011;2202;50.866;12.750;2023-03-23T04:22:49;5.57;;;2.77;;
4375;SDS011;2202;50.866;12.750;2023-03-23T04:25:17;2.80;;;2.47;;
4375;SDS011;2202;50.866;12.750;2023-03-23T04:27:47;2.40;;;2.20;;
4375;SDS011;2202;50.866;12.750;2023-03-23T04:30:17;4.67;;;2.40;;
4375;SDS011;2202;50.866;12.750;2023-03-23T04:32:45;2.50;;;2.30;;
4375;SDS011;2202;50.866;12.750;2023-03-23T04:35:15;2.83;;;2.23;;
4375;SDS011;2202;50.866;12.750;2023-03-23T04:37:44;4.33;;;2.27;;
4375;SDS011;2202;50.866;12.750;2023-03-23T04:40:11;3.30;;;2.10;;
4375;SDS011;2202;50.866;12.750;2023-03-23T04:42:39;3.83;;;2.20;;
4375;SDS011;2202;50.866;12.750;2023-03-23T04:45:12;3.60;;;2.40;;
4375;SDS011;2202;50.866;12.750;2023-03-23T04:47:40;5.30;;;2.50;;
4375;SDS011;2202;50.866;12.750;2023-03-23T04:50:14;2.40;;;2.17;;
4375;SDS011;2202;50.866;12.750;2023-03-23T04:52:42;2.80;;;2.40;;
4375;SDS011;2202;50.866;12.750;2023-03-23T04:55:11;4.37;;;2.57;;
4375;SDS011;2202;50.866;12.750;2023-03-23T04:57:38;2.50;;;2.17;;
4375;SDS011;2202;50.866;12.750;2023-03-23T05:00:06;3.20;;;2.90;;
4375;SDS011;2202;50.866;12.750;2023-03-23T05:02:36;3.00;;;2.70;;
4375;SDS011;2202;50.866;12.750;2023-03-23T05:05:04;3.70;;;2.50;;
4375;SDS011;2202;50.866;12.750;2023-03-23T05:07:32;2.53;;;2.33;;
4375;SDS011;2202;50.866;12.750;2023-03-23T05:09:59;2.87;;;2.57;;
4375;SDS011;2202;50.866;12.750;2023-03-23T05:12:26;2.63;;;1.97;;
4375;SDS011;2202;50.866;12.750;2023-03-23T05:14:53;2.27;;;1.93;;
4375;SDS011;2202;50.866;12.750;2023-03-23T05:17:20;2.80;;;2.17;;
4375;SDS011;2202;50.866;12.750;2023-03-23T05:19:50;2.30;;;2.10;;
4375;SDS011;2202;50.866;12.750;2023-03-23T05:22:18;3.20;;;2.80;;
4375;SDS011;2202;50.866;12.750;2023-03-23T05:24:45;2.00;;;1.67;;
4375;SDS011;2202;50.866;12.750;2023-03-23T05:27:12;2.37;;;2.10;;
4375;SDS011;2202;50.866;12.750;2023-03-23T05:29:42;2.00;;;1.70;;
4375;SDS011;2202;50.866;12.750;2023-03-23T05:32:11;2.67;;;1.60;;
4375;SDS011;2202;50.866;12.750;2023-03-23T05:34:38;2.43;;;2.10;;
4375;SDS011;2202;50.866;12.750;2023-03-23T05:37:06;2.30;;;2.10;;
4375;SDS011;2202;50.866;12.750;2023-03-23T05:39:34;3.57;;;2.37;;
4375;SDS011;2202;50.866;12.750;2023-03-23T05:42:02;2.00;;;1.70;;
4375;SDS011;2202;50.866;12.750;2023-03-23T05:44:29;2.20;;;2.00;;
4375;SDS011;2202;50.866;12.750;2023-03-23T05:46:56;2.40;;;1.80;;
4375;SDS011;2202;50.866;12.750;2023-03-23T05:49:23;2.90;;;1.53;;
4375;SDS011;2202;50.866;12.750;2023-03-23T05:51:51;2.50;;;2.30;;
4375;SDS011;2202;50.866;12.750;2023-03-23T05:54:19;2.60;;;2.13;;
4375;SDS011;2202;50.866;12.750;2023-03-23T05:56:46;2.50;;;2.27;;
4375;SDS011;2202;50.866;12.750;2023-03-23T05:59:14;3.10;;;2.20;;
4375;SDS011;2202;50.866;12.750;2023-03-23T06:01:41;2.23;;;1.83;;
4375;SDS011;2202;50.866;12.750;2023-03-23T06:04:08;2.33;;;2.03;;
4375;SDS011;2202;50.866;12.750;2023-03-23T06:06:36;3.70;;;2.37;;
4375;SDS011;2202;50.866;12.750;2023-03-23T06:09:03;2.57;;;2.10;;
4375;SDS011;2202;50.866;12.750;2023-03-23T06:11:33;3.00;;;1.97;;
4375;SDS011;2202;50.866;12.750;2023-03-23T06:14:00;1.87;;;1.70;;
4375;SDS011;2202;50.866;12.750;2023-03-23T06:16:28;2.40;;;2.10;;
4375;SDS011;2202;50.866;12.750;2023-03-23T06:18:54;2.47;;;1.97;;
4375;SDS011;2202;50.866;12.750;2023-03-23T06:21:22;3.13;;;2.83;;
4375;SDS011;2202;50.866;12.750;2023-03-23T06:23:49;2.30;;;2.07;;
4375;SDS011;2202;50.866;12.750;2023-03-23T06:26:16;2.30;;;2.10;;
4375;SDS011;2202;50.866;12.750;2023-03-23T06:28:46;2.80;;;2.47;;
4375;SDS011;2202;50.866;12.750;2023-03-23T06:31:14;4.23;;;2.83;;
4375;SDS011;2202;50.866;12.750;2023-03-23T06:33:42;2.43;;;2.10;;
4375;SDS011;2202;50.866;12.750;2023-03-23T06:36:10;4.10;;;2.33;;
4375;SDS011;2202;50.866;12.750;2023-03-23T06:38:37;5.07;;;2.23;;
4375;SDS011;2202;50.866;12.750;2023-03-23T06:41:04;3.40;;;2.17;;
4375;SDS011;2202;50.866;12.750;2023-03-23T06:43:31;2.70;;;1.97;;
4375;SDS011;2202;50.866;12.750;2023-03-23T06:46:00;3.60;;;2.97;;
4375;SDS011;2202;50.866;12.750;2023-03-23T06:48:26;3.77;;;2.20;;
4375;SDS011;2202;50.866;12.750;2023-03-23T06:50:53;2.40;;;2.20;;
4375;SDS011;2202;50.866;12.750;2023-03-23T06:53:20;2.50;;;2.30;;
4375;SDS011;2202;50.866;12.750;2023-03-23T06:55:47;2.40;;;2.20;;
4375;SDS011;2202;50.866;12.750;2023-03-23T06:58:14;2.20;;;2.00;;
4375;SDS011;2202;50.866;12.750;2023-03-23T07:00:41;2.53;;;2.20;;
4375;SDS011;2202;50.866;12.750;2023-03-23T07:03:09;2.23;;;2.03;;
4375;SDS011;2202;50.866;12.750;2023-03-23T07:05:36;3.53;;;1.93;;
4375;SDS011;2202;50.866;12.750;2023-03-23T07:08:03;3.33;;;3.03;;
4375;SDS011;2202;50.866;12.750;2023-03-23T07:10:30;6.80;;;1.80;;
4375;SDS011;2202;50.866;12.750;2023-03-23T07:12:58;1.97;;;1.77;;
4375;SDS011;2202;50.866;12.750;2023-03-23T07:15:25;3.30;;;2.50;;
4375;SDS011;2202;50.866;12.750;2023-03-23T07:17:52;3.10;;;2.57;;
4375;SDS011;2202;50.866;12.750;2023-03-23T07:20:21;2.57;;;2.30;;
4375;SDS011;2202;50.866;12.750;2023-03-23T07:22:48;2.93;;;2.30;;
4375;SDS011;2202;50.866;12.750;2023-03-23T07:25:16;4.10;;;2.50;;
4375;SDS011;2202;50.866;12.750;2023-03-23T07:27:44;3.20;;;2.60;;
4375;SDS011;2202;50.866;12.750;2023-03-23T07:30:12;4.77;;;3.27;;
4375;SDS011;2202;50.866;12.750;2023-03-23T07:32:39;2.93;;;2.70;;
4375;SDS011;2202;50.866;12.750;2023-03-23T07:35:07;3.07;;;2.80;;
4375;SDS011;2202;50.866;12.750;2023-03-23T07:37:36;2.93;;;2.40;;
4375;SDS011;2202;50.866;12.750;2023-03-23T07:40:03;4.40;;;2.60;;
4375;SDS011;2202;50.866;12.750;2023-03-23T07:42:39;2.53;;;2.20;;
4375;SDS011;2202;50.866;12.750;2023-03-23T07:45:08;2.33;;;2.13;;
4375;SDS011;2202;50.866;12.750;2023-03-23T07:47:36;4.17;;;2.90;;
4375;SDS011;2202;50.866;12.750;2023-03-23T07:50:03;2.87;;;2.60;;
4375;SDS011;2202;50.866;12.750;2023-03-23T07:52:31;2.50;;;2.30;;
4375;SDS011;2202;50.866;12.750;2023-03-23T07:54:59;2.83;;;2.47;;
4375;SDS011;2202;50.866;12.750;2023-03-23T07:57:27;2.93;;;1.97;;
4375;SDS011;2202;50.866;12.750;2023-03-23T07:59:55;2.27;;;2.07;;
4375;SDS011;2202;50.866;12.750;2023-03-23T08:02:22;2.83;;;2.63;;
4375;SDS011;2202;50.866;12.750;2023-03-23T08:04:50;7.53;;;3.07;;
4375;SDS011;2202;50.866;12.750;2023-03-23T08:07:18;2.73;;;2.43;;
4375;SDS011;2202;50.866;12.750;2023-03-23T08:09:45;2.73;;;2.53;;
4375;SDS011;2202;50.866;12.750;2023-03-23T08:12:14;4.73;;;3.40;;
4375;SDS011;2202;50.866;12.750;2023-03-23T08:14:42;2.80;;;2.60;;
4375;SDS011;2202;50.866;12.750;2023-03-23T08:17:09;4.30;;;3.13;;
4375;SDS011;2202;50.866;12.750;2023-03-23T08:19:36;2.90;;;2.70;;
4375;SDS011;2202;50.866;12.750;2023-03-23T08:22:03;3.80;;;3.13;;
4375;SDS011;2202;50.866;12.750;2023-03-23T08:24:30;3.83;;;3.30;;
4375;SDS011;2202;50.866;12.750;2023-03-23T08:26:57;3.60;;;3.00;;
4375;SDS011;2202;50.866;12.750;2023-03-23T08:29:26;7.20;;;5.63;;
4375;SDS011;2202;50.866;12.750;2023-03-23T08:31:53;3.60;;;3.30;;
4375;SDS011;2202;50.866;12.750;2023-03-23T08:34:20;3.30;;;3.00;;
4375;SDS011;2202;50.866;12.750;2023-03-23T08:36:47;4.23;;;2.63;;
4375;SDS011;2202;50.866;12.750;2023-03-23T08:39:16;4.10;;;3.17;;
4375;SDS011;2202;50.866;12.750;2023-03-23T08:41:44;2.60;;;2.40;;
4375;SDS011;2202;50.866;12.750;2023-03-23T08:44:11;5.47;;;3.10;;
4375;SDS011;2202;50.866;12.750;2023-03-23T08:46:39;4.50;;;3.07;;
4375;SDS011;2202;50.866;12.750;2023-03-23T08:49:06;2.90;;;2.60;;
4375;SDS011;2202;50.866;12.750;2023-03-23T08:51:33;3.20;;;2.93;;
4375;SDS011;2202;50.866;12.750;2023-03-23T08:54:02;3.40;;;3.10;;
4375;SDS011;2202;50.866;12.750;2023-03-23T08:56:29;3.33;;;3.03;;
4375;SDS011;2202;50.866;12.750;2023-03-23T08:58:55;2.90;;;2.60;;
4375;SDS011;2202;50.866;12.750;2023-03-23T09:01:22;4.00;;;3.60;;
4375;SDS011;2202;50.866;12.750;2023-03-23T09:03:50;3.80;;;3.40;;
4375;SDS011;2202;50.866;12.750;2023-03-23T09:06:17;3.93;;;3.53;;
4375;SDS011;2202;50.866;12.750;2023-03-23T09:08:44;9.83;;;3.43;;
4375;SDS011;2202;50.866;12.750;2023-03-23T09:11:11;7.70;;;4.60;;
4375;SDS011;2202;50.866;12.750;2023-03-23T09:13:38;3.20;;;2.97;;
4375;SDS011;2202;50.866;12.750;2023-03-23T09:16:06;3.60;;;3.10;;
4375;SDS011;2202;50.866;12.750;2023-03-23T09:18:34;3.13;;;2.87;;
4375;SDS011;2202;50.866;12.750;2023-03-23T09:21:02;3.57;;;3.27;;
4375;SDS011;2202;50.866;12.750;2023-03-23T09:23:30;4.10;;;3.70;;
4375;SDS011;2202;50.866;12.750;2023-03-23T09:25:58;3.30;;;3.00;;
4375;SDS011;2202;50.866;12.750;2023-03-23T09:28:26;3.03;;;2.70;;
4375;SDS011;2202;50.866;12.750;2023-03-23T09:30:54;4.20;;;3.13;;
4375;SDS011;2202;50.866;12.750;2023-03-23T09:33:22;2.80;;;2.60;;
4375;SDS011;2202;50.866;12.750;2023-03-23T09:35:50;3.70;;;3.00;;
4375;SDS011;2202;50.866;12.750;2023-03-23T09:38:18;3.07;;;2.87;;
4375;SDS011;2202;50.866;12.750;2023-03-23T09:40:47;3.73;;;3.07;;
4375;SDS011;2202;50.866;12.750;2023-03-23T09:43:32;3.10;;;2.90;;
4375;SDS011;2202;50.866;12.750;2023-03-23T09:46:14;3.40;;;2.70;;
4375;SDS011;2202;50.866;12.750;2023-03-23T09:48:53;3.20;;;2.90;;
4375;SDS011;2202;50.866;12.750;2023-03-23T09:51:25;5.60;;;3.57;;
4375;SDS011;2202;50.866;12.750;2023-03-23T09:54:00;3.10;;;2.90;;
4375;SDS011;2202;50.866;12.750;2023-03-23T09:56:31;3.47;;;3.17;;
4375;SDS011;2202;50.866;12.750;2023-03-23T09:59:02;3.60;;;2.57;;
4375;SDS011;2202;50.866;12.750;2023-03-23T10:01:36;6.20;;;3.10;;
4375;SDS011;2202;50.866;12.750;2023-03-23T10:04:07;2.83;;;2.53;;
4375;SDS011;2202;50.866;12.750;2023-03-23T10:06:37;2.93;;;2.73;;
4375;SDS011;2202;50.866;12.750;2023-03-23T10:09:06;3.80;;;2.60;;
4375;SDS011;2202;50.866;12.750;2023-03-23T10:11:43;2.50;;;2.30;;
4375;SDS011;2202;50.866;12.750;2023-03-23T10:14:26;2.90;;;2.17;;
4375;SDS011;2202;50.866;12.750;2023-03-23T10:17:02;3.70;;;2.40;;
4375;SDS011;2202;50.866;12.750;2023-03-23T10:19:37;4.03;;;2.53;;
4375;SDS011;2202;50.866;12.750;2023-03-23T10:22:13;3.73;;;2.50;;
4375;SDS011;2202;50.866;12.750;2023-03-23T10:24:48;15.03;;;3.50;;
4375;SDS011;2202;50.866;12.750;2023-03-23T10:27:19;4.27;;;2.40;;
4375;SDS011;2202;50.866;12.750;2023-03-23T10:29:52;2.10;;;1.90;;
4375;SDS011;2202;50.866;12.750;2023-03-23T10:32:34;5.20;;;2.17;;
4375;SDS011;2202;50.866;12.750;2023-03-23T10:35:07;4.03;;;2.80;;
4375;SDS011;2202;50.866;12.750;2023-03-23T10:37:41;4.63;;;2.30;;
4375;SDS011;2202;50.866;12.750;2023-03-23T10:40:14;3.40;;;2.90;;
4375;SDS011;2202;50.866;12.750;2023-03-23T10:42:44;3.67;;;2.90;;
4375;SDS011;2202;50.866;12.750;2023-03-23T10:45:15;3.00;;;2.77;;
4375;SDS011;2202;50.866;12.750;2023-03-23T10:47:45;2.60;;;2.40;;
4375;SDS011;2202;50.866;12.750;2023-03-23T10:50:22;2.63;;;2.43;;
4375;SDS011;2202;50.866;12.750;2023-03-23T10:52:52;3.30;;;2.53;;
4375;SDS011;2202;50.866;12.750;2023-03-23T10:55:25;3.00;;;2.80;;
4375;SDS011;2202;50.866;12.750;2023-03-23T10:58:03;3.50;;;3.20;;
4375;SDS011;2202;50.866;12.750;2023-03-23T11:00:33;4.23;;;3.93;;
4375;SDS011;2202;50.866;12.750;2023-03-23T11:03:20;3.33;;;3.03;;
4375;SDS011;2202;50.866;12.750;2023-03-23T11:05:56;3.70;;;2.40;;
4375;SDS011;2202;50.866;12.750;2023-03-23T11:08:25;6.20;;;2.80;;
4375;SDS011;2202;50.866;12.750;2023-03-23T11:10:55;2.23;;;2.03;;
4375;SDS011;2202;50.866;12.750;2023-03-23T11:13:27;5.70;;;2.63;;
4375;SDS011;2202;50.866;12.750;2023-03-23T11:15:56;3.47;;;3.10;;
4375;SDS011;2202;50.866;12.750;2023-03-23T11:18:25;3.47;;;2.73;;
4375;SDS011;2202;50.866;12.750;2023-03-23T11:20:54;3.10;;;2.60;;
4375;SDS011;2202;50.866;12.750;2023-03-23T11:23:23;2.93;;;2.67;;
4375;SDS011;2202;50.866;12.750;2023-03-23T11:25:58;3.40;;;2.70;;
4375;SDS011;2202;50.866;12.750;2023-03-23T11:28:28;3.40;;;2.20;;
4375;SDS011;2202;50.866;12.750;2023-03-23T11:30:57;3.07;;;2.87;;
4375;SDS011;2202;50.866;12.750;2023-03-23T11:33:29;2.90;;;2.70;;
4375;SDS011;2202;50.866;12.750;2023-03-23T11:35:56;3.70;;;2.70;;
4375;SDS011;2202;50.866;12.750;2023-03-23T11:38:24;3.63;;;2.60;;
4375;SDS011;2202;50.866;12.750;2023-03-23T11:40:53;4.07;;;3.43;;
4375;SDS011;2202;50.866;12.750;2023-03-23T11:43:22;2.77;;;2.57;;
4375;SDS011;2202;50.866;12.750;2023-03-23T11:45:54;4.30;;;3.40;;
4375;SDS011;2202;50.866;12.750;2023-03-23T11:48:28;2.63;;;2.43;;
4375;SDS011;2202;50.866;12.750;2023-03-23T11:51:04;3.40;;;3.10;;
4375;SDS011;2202;50.866;12.750;2023-03-23T11:53:37;6.17;;;3.23;;
4375;SDS011;2202;50.866;12.750;2023-03-23T11:56:19;3.20;;;3.00;;
4375;SDS011;2202;50.866;12.750;2023-03-23T11:58:51;4.27;;;3.60;;
4375;SDS011;2202;50.866;12.750;2023-03-23T12:01:38;2.60;;;2.40;;
4375;SDS011;2202;50.866;12.750;2023-03-23T12:04:21;3.30;;;2.90;;
4375;SDS011;2202;50.866;12.750;2023-03-23T12:09:51;3.43;;;3.00;;
4375;SDS011;2202;50.866;12.750;2023-03-23T12:12:28;3.37;;;3.07;;
4375;SDS011;2202;50.866;12.750;2023-03-23T12:15:04;3.00;;;2.80;;
4375;SDS011;2202;50.866;12.750;2023-03-23T12:17:42;3.10;;;2.90;;
4375;SDS011;2202;50.866;12.750;2023-03-23T12:20:20;3.40;;;3.10;;
4375;SDS011;2202;50.866;12.750;2023-03-23T12:22:58;3.37;;;2.93;;
4375;SDS011;2202;50.866;12.750;2023-03-23T12:25:42;2.93;;;2.63;;
4375;SDS011;2202;50.866;12.750;2023-03-23T12:28:23;4.73;;;3.10;;
4375;SDS011;2202;50.866;12.750;2023-03-23T12:31:01;3.70;;;3.03;;
4375;SDS011;2202;50.866;12.750;2023-03-23T12:33:35;3.10;;;2.80;;
4375;SDS011;2202;50.866;12.750;2023-03-23T12:36:14;3.80;;;3.10;;
4375;SDS011;2202;50.866;12.750;2023-03-23T12:38:51;4.00;;;3.70;;
4375;SDS011;2202;50.866;12.750;2023-03-23T12:41:29;2.80;;;2.37;;
4375;SDS011;2202;50.866;12.750;2023-03-23T12:44:03;5.23;;;2.80;;
4375;SDS011;2202;50.866;12.750;2023-03-23T12:46:45;3.50;;;2.87;;
4375;SDS011;2202;50.866;12.750;2023-03-23T12:49:25;3.13;;;2.33;;
4375;SDS011;2202;50.866;12.750;2023-03-23T12:51:58;2.13;;;1.93;;
4375;SDS011;2202;50.866;12.750;2023-03-23T12:54:29;1.87;;;1.67;;
4375;SDS011;2202;50.866;12.750;2023-03-23T12:57:04;3.67;;;1.97;;
4375;SDS011;2202;50.866;12.750;2023-03-23T12:59:45;3.40;;;1.90;;
4375;SDS011;2202;50.866;12.750;2023-03-23T13:02:19;3.00;;;2.00;;
4375;SDS011;2202;50.866;12.750;2023-03-23T13:04:50;1.80;;;1.47;;
4375;SDS011;2202;50.866;12.750;2023-03-23T13:07:22;2.40;;;1.90;;
4375;SDS011;2202;50.866;12.750;2023-03-23T13:09:55;2.17;;;1.97;;
4375;SDS011;2202;50.866;12.750;2023-03-23T13:12:29;3.50;;;2.10;;
4375;SDS011;2202;50.866;12.750;2023-03-23T13:15:00;4.00;;;2.50;;
4375;SDS011;2202;50.866;12.750;2023-03-23T13:17:37;2.27;;;2.07;;
4375;SDS011;2202;50.866;12.750;2023-03-23T13:20:21;2.00;;;1.63;;
4375;SDS011;2202;50.866;12.750;2023-03-23T13:23:00;2.10;;;1.90;;
4375;SDS011;2202;50.866;12.750;2023-03-23T13:25:38;2.07;;;1.60;;
4375;SDS011;2202;50.866;12.750;2023-03-23T13:28:15;2.67;;;1.80;;
4375;SDS011;2202;50.866;12.750;2023-03-23T13:30:59;4.53;;;2.10;;
4375;SDS011;2202;50.866;12.750;2023-03-23T13:33:33;2.23;;;1.77;;
4375;SDS011;2202;50.866;12.750;2023-03-23T13:36:02;2.67;;;2.20;;
4375;SDS011;2202;50.866;12.750;2023-03-23T13:38:34;2.37;;;2.17;;
4375;SDS011;2202;50.866;12.750;2023-03-23T13:41:05;2.67;;;2.43;;
4375;SDS011;2202;50.866;12.750;2023-03-23T13:43:35;2.17;;;1.80;;
4375;SDS011;2202;50.866;12.750;2023-03-23T13:46:23;4.00;;;2.10;;
4375;SDS011;2202;50.866;12.750;2023-03-23T13:49:03;3.33;;;2.30;;
4375;SDS011;2202;50.866;12.750;2023-03-23T13:51:47;4.13;;;1.93;;
4375;SDS011;2202;50.866;12.750;2023-03-23T13:54:24;3.60;;;2.23;;
4375;SDS011;2202;50.866;12.750;2023-03-23T13:56:57;2.20;;;2.00;;
4375;SDS011;2202;50.866;12.750;2023-03-23T13:59:30;2.50;;;2.20;;
4375;SDS011;2202;50.866;12.750;2023-03-23T14:05:10;2.23;;;2.03;;
4375;SDS011;2202;50.866;12.750;2023-03-23T14:07:56;2.30;;;2.10;;
4375;SDS011;2202;50.866;12.750;2023-03-23T14:10:31;3.00;;;1.73;;
4375;SDS011;2202;50.866;12.750;2023-03-23T14:13:00;2.80;;;2.20;;
4375;SDS011;2202;50.866;12.750;2023-03-23T14:15:29;2.60;;;2.40;;
4375;SDS011;2202;50.866;12.750;2023-03-23T14:17:57;4.43;;;2.10;;
4375;SDS011;2202;50.866;12.750;2023-03-23T14:20:32;2.90;;;2.13;;
4375;SDS011;2202;50.866;12.750;2023-03-23T14:23:02;2.93;;;2.30;;
4375;SDS011;2202;50.866;12.750;2023-03-23T14:25:30;2.70;;;2.50;;
4375;SDS011;2202;50.866;12.750;2023-03-23T14:27:57;2.73;;;2.50;;
4375;SDS011;2202;50.866;12.750;2023-03-23T14:30:25;2.77;;;2.57;;
4375;SDS011;2202;50.866;12.750;2023-03-23T14:32:54;2.50;;;2.03;;
4375;SDS011;2202;50.866;12.750;2023-03-23T14:35:32;3.60;;;1.70;;
4375;SDS011;2202;50.866;12.750;2023-03-23T14:38:00;2.87;;;2.13;;
4375;SDS011;2202;50.866;12.750;2023-03-23T14:40:28;2.43;;;1.73;;
4375;SDS011;2202;50.866;12.750;2023-03-23T14:42:56;2.73;;;2.53;;
4375;SDS011;2202;50.866;12.750;2023-03-23T14:45:24;2.77;;;1.80;;
4375;SDS011;2202;50.866;12.750;2023-03-23T14:47:53;2.07;;;1.87;;
4375;SDS011;2202;50.866;12.750;2023-03-23T14:50:23;3.37;;;1.83;;
4375;SDS011;2202;50.866;12.750;2023-03-23T14:52:55;1.83;;;1.60;;
4375;SDS011;2202;50.866;12.750;2023-03-23T14:55:24;1.87;;;1.60;;
4375;SDS011;2202;50.866;12.750;2023-03-23T14:57:53;1.80;;;1.33;;
4375;SDS011;2202;50.866;12.750;2023-03-23T15:00:22;3.53;;;3.20;;
4375;SDS011;2202;50.866;12.750;2023-03-23T15:02:52;1.87;;;1.60;;
4375;SDS011;2202;50.866;12.750;2023-03-23T15:05:22;2.00;;;1.70;;
4375;SDS011;2202;50.866;12.750;2023-03-23T15:07:55;5.40;;;2.00;;
4375;SDS011;2202;50.866;12.750;2023-03-23T15:10:28;2.07;;;1.90;;
4375;SDS011;2202;50.866;12.750;2023-03-23T15:12:55;4.10;;;1.80;;
4375;SDS011;2202;50.866;12.750;2023-03-23T15:15:24;2.10;;;1.70;;
4375;SDS011;2202;50.866;12.750;2023-03-23T15:17:53;2.10;;;1.90;;
4375;SDS011;2202;50.866;12.750;2023-03-23T15:20:22;2.07;;;1.87;;
4375;SDS011;2202;50.866;12.750;2023-03-23T15:22:51;1.83;;;1.73;;
4375;SDS011;2202;50.866;12.750;2023-03-23T15:25:21;1.80;;;1.70;;
4375;SDS011;2202;50.866;12.750;2023-03-23T15:27:50;1.90;;;1.50;;
4375;SDS011;2202;50.866;12.750;2023-03-23T15:30:28;1.50;;;1.30;;
4375;SDS011;2202;50.866;12.750;2023-03-23T15:33:00;1.50;;;1.40;;